createdAt,value
2022-09-22T00:02:07.170Z,100.00
2022-09-22T00:05:08.993Z,100.00
2022-09-22T00:08:10.609Z,100.00
2022-09-22T00:11:14.875Z,100.00
2022-09-22T00:14:18.937Z,100.00
2022-09-22T00:17:20.620Z,100.00
2022-09-22T00:20:22.416Z,100.00
2022-09-22T00:23:24.834Z,100.00
2022-09-22T00:26:27.976Z,100.00
2022-09-22T00:29:30.254Z,100.00
2022-09-22T00:32:31.970Z,100.00
2022-09-22T00:35:33.633Z,100.00
2022-09-22T00:38:35.281Z,100.00
2022-09-22T00:41:40.065Z,100.00
2022-09-22T00:44:42.220Z,100.00
2022-09-22T00:47:45.244Z,100.00
2022-09-22T00:50:47.439Z,100.00
2022-09-22T00:53:49.683Z,100.00
2022-09-22T00:56:54.125Z,100.00
2022-09-22T00:59:55.805Z,100.00
2022-09-22T01:02:59.178Z,100.00
2022-09-22T01:06:03.049Z,100.00
2022-09-22T01:09:05.408Z,100.00
2022-09-22T01:12:08.669Z,100.00
2022-09-22T01:15:23.692Z,100.00
2022-09-22T01:18:29.741Z,100.00
2022-09-22T01:21:36.202Z,100.00
2022-09-22T01:24:54.078Z,100.00
2022-09-22T01:28:15.234Z,100.00
2022-09-22T01:31:21.491Z,100.00
2022-09-22T01:34:27.735Z,100.00
2022-09-22T01:37:35.765Z,100.00
2022-09-22T01:40:41.873Z,100.00
2022-09-22T01:43:47.852Z,100.00
2022-09-22T01:46:53.026Z,100.00
2022-09-22T01:49:58.560Z,100.00
2022-09-22T01:53:03.467Z,100.00
2022-09-22T01:56:08.581Z,100.00
2022-09-22T01:59:11.526Z,100.00
2022-09-22T02:02:17.825Z,100.00
2022-09-22T02:05:22.746Z,100.00
2022-09-22T02:08:26.996Z,100.00
2022-09-22T02:11:28.654Z,100.00
2022-09-22T02:14:30.298Z,100.00
2022-09-22T02:17:35.458Z,100.00
2022-09-22T02:20:37.671Z,100.00
2022-09-22T02:23:39.393Z,100.00
2022-09-22T02:26:41.095Z,100.00
2022-09-22T02:29:44.724Z,100.00
2022-09-22T02:32:48.958Z,100.00
2022-09-22T02:35:54.610Z,100.00
2022-09-22T02:39:00.424Z,100.00
2022-09-22T02:42:10.565Z,100.00
2022-09-22T02:45:13.948Z,100.00
2022-09-22T02:48:19.817Z,100.00
2022-09-22T02:51:22.038Z,100.00
2022-09-22T02:54:23.623Z,100.00
2022-09-22T02:57:25.374Z,100.00
2022-09-22T03:00:27.015Z,100.00
2022-09-22T03:03:30.099Z,100.00
2022-09-22T03:06:31.735Z,100.00
2022-09-22T03:09:33.371Z,100.00
2022-09-22T03:12:35.077Z,100.00
2022-09-22T03:15:36.734Z,100.00
2022-09-22T03:18:39.755Z,100.00
2022-09-22T03:21:41.378Z,100.00
2022-09-22T03:24:43.005Z,100.00
2022-09-22T03:27:44.651Z,100.00
2022-09-22T03:30:46.361Z,100.00
2022-09-22T03:33:52.739Z,100.00
2022-09-22T03:36:54.655Z,100.00
2022-09-22T03:39:56.284Z,100.00
2022-09-22T03:42:57.910Z,100.00
2022-09-22T03:46:00.253Z,100.00
2022-09-22T03:49:03.314Z,100.00
2022-09-22T03:52:04.982Z,100.00
2022-09-22T03:55:07.327Z,100.00
2022-09-22T03:58:08.940Z,100.00
2022-09-22T04:01:11.020Z,100.00
2022-09-22T04:04:14.097Z,100.00
2022-09-22T04:07:15.712Z,100.00
2022-09-22T04:10:17.362Z,100.00
2022-09-22T04:13:18.975Z,100.00
2022-09-22T04:16:20.945Z,100.00
2022-09-22T04:19:23.992Z,100.00
2022-09-22T04:22:25.629Z,100.00
2022-09-22T04:25:27.268Z,100.00
2022-09-22T04:28:29.127Z,100.00
2022-09-22T04:31:30.761Z,100.00
2022-09-22T04:34:33.872Z,100.00
2022-09-22T04:37:35.514Z,100.00
2022-09-22T04:40:37.182Z,100.00
2022-09-22T04:43:38.848Z,100.00
2022-09-22T04:46:40.431Z,100.00
2022-09-22T04:49:43.444Z,100.00
2022-09-22T04:52:45.452Z,100.00
2022-09-22T04:55:47.147Z,100.00
2022-09-22T04:58:48.766Z,100.00
2022-09-22T05:01:50.353Z,100.00
2022-09-22T05:04:53.453Z,100.00
2022-09-22T05:07:55.094Z,100.00
2022-09-22T05:10:56.724Z,100.00
2022-09-22T05:13:58.356Z,100.00
2022-09-22T05:17:00.057Z,100.00
2022-09-22T05:20:04.000Z,100.00
2022-09-22T05:23:07.033Z,100.00
2022-09-22T05:26:08.640Z,100.00
2022-09-22T05:29:10.323Z,100.00
2022-09-22T05:32:11.926Z,100.00
2022-09-22T05:35:16.200Z,100.00
2022-09-22T05:38:17.933Z,100.00
2022-09-22T05:41:19.617Z,100.00
2022-09-22T05:44:21.318Z,100.00
2022-09-22T05:47:23.034Z,100.00
2022-09-22T05:50:26.056Z,100.00
2022-09-22T05:53:27.721Z,100.00
2022-09-22T05:56:31.167Z,100.00
2022-09-22T05:59:32.994Z,100.00
2022-09-22T06:02:34.704Z,100.00
2022-09-22T06:05:39.457Z,100.00
2022-09-22T06:08:45.128Z,100.00
2022-09-22T06:11:50.119Z,100.00
2022-09-22T06:14:51.829Z,100.00
2022-09-22T06:17:53.438Z,100.00
2022-09-22T06:20:56.429Z,100.00
2022-09-22T06:23:58.147Z,100.00
2022-09-22T06:26:59.897Z,100.00
2022-09-22T06:30:01.545Z,100.00
2022-09-22T06:33:03.306Z,100.00
2022-09-22T06:36:07.681Z,100.00
2022-09-22T06:39:09.436Z,100.00
2022-09-22T06:42:11.061Z,100.00
2022-09-22T06:45:12.814Z,100.00
2022-09-22T06:48:14.481Z,100.00
2022-09-22T06:51:17.512Z,100.00
2022-09-22T06:54:21.401Z,100.00
2022-09-22T06:57:24.690Z,100.00
2022-09-22T07:00:27.219Z,100.00
2022-09-22T07:03:28.895Z,100.00
2022-09-22T07:06:31.918Z,100.00
2022-09-22T07:09:33.548Z,100.00
2022-09-22T07:12:35.147Z,100.00
2022-09-22T07:15:37.093Z,100.00
2022-09-22T07:18:39.318Z,100.00
2022-09-22T07:21:42.300Z,100.00
2022-09-22T07:24:44.038Z,100.00
2022-09-22T07:27:45.691Z,100.00
2022-09-22T07:30:47.317Z,100.00
2022-09-22T07:33:49.249Z,100.00
2022-09-22T07:36:52.287Z,100.00
2022-09-22T07:39:53.953Z,100.00
2022-09-22T07:42:55.662Z,100.00
2022-09-22T07:45:57.362Z,100.00
2022-09-22T07:48:58.977Z,100.00
2022-09-22T07:52:02.020Z,100.00
2022-09-22T07:55:03.813Z,100.00
2022-09-22T07:58:05.437Z,100.00
2022-09-22T08:01:07.887Z,100.00
2022-09-22T08:04:09.602Z,100.00
2022-09-22T08:07:12.632Z,100.00
2022-09-22T08:10:14.478Z,100.00
2022-09-22T08:13:16.121Z,100.00
2022-09-22T08:16:17.807Z,100.00
2022-09-22T08:19:19.683Z,100.00
2022-09-22T08:22:22.713Z,100.00
2022-09-22T08:25:24.341Z,100.00
2022-09-22T08:28:25.952Z,100.00
2022-09-22T08:31:27.671Z,100.00
2022-09-22T08:34:29.374Z,100.00
2022-09-22T08:37:32.478Z,100.00
2022-09-22T08:40:35.135Z,100.00
2022-09-22T08:43:43.483Z,100.00
2022-09-22T08:46:46.635Z,100.00
2022-09-22T08:49:51.252Z,100.00
2022-09-22T08:52:55.448Z,100.00
2022-09-22T08:56:01.421Z,100.00
2022-09-22T08:59:06.792Z,100.00
2022-09-22T09:02:25.289Z,100.00
2022-09-22T09:05:45.634Z,100.00
2022-09-22T09:09:07.574Z,100.00
2022-09-22T09:12:27.117Z,100.00
2022-09-22T09:15:33.821Z,100.00
2022-09-22T09:18:38.800Z,100.00
2022-09-22T09:21:41.832Z,100.00
2022-09-22T09:28:12.901Z,100.00
2022-09-22T09:31:19.055Z,100.00
2022-09-22T09:34:22.588Z,100.00
2022-09-22T09:37:24.419Z,100.00
2022-09-22T09:40:27.967Z,100.00
2022-09-22T09:43:30.615Z,100.00
2022-09-22T09:46:39.704Z,100.00
2022-09-22T09:49:41.606Z,100.00
2022-09-22T09:52:43.330Z,100.00
2022-09-22T09:55:46.340Z,100.00
2022-09-22T09:58:54.772Z,100.00
2022-09-22T10:01:56.653Z,100.00
2022-09-22T10:05:00.455Z,100.00
2022-09-22T10:08:03.132Z,100.00
2022-09-22T10:11:06.534Z,100.00
2022-09-22T10:14:17.231Z,100.00
2022-09-22T10:17:22.789Z,100.00
2022-09-22T10:20:25.789Z,100.00
2022-09-22T10:23:27.532Z,100.00
2022-09-22T10:26:31.226Z,100.00
2022-09-22T10:29:32.815Z,100.00
2022-09-22T10:32:34.438Z,100.00
2022-09-22T10:35:36.338Z,100.00
2022-09-22T10:41:42.971Z,100.00
2022-09-22T10:44:48.538Z,100.00
2022-09-22T10:47:56.562Z,100.00
2022-09-22T10:51:03.880Z,100.00
2022-09-22T10:54:20.143Z,100.00
2022-09-22T10:57:27.347Z,100.00
2022-09-22T11:00:35.271Z,100.00
2022-09-22T11:03:50.476Z,100.00
2022-09-22T11:07:01.597Z,100.00
2022-09-22T11:10:07.043Z,99.40
2022-09-22T11:13:16.536Z,99.97
2022-09-22T11:16:33.216Z,100.00
2022-09-22T11:19:42.603Z,98.90
2022-09-22T11:22:52.961Z,99.93
2022-09-22T11:26:02.001Z,100.00
2022-09-22T11:29:21.573Z,99.92
2022-09-22T11:32:33.970Z,100.00
2022-09-22T11:35:50.220Z,97.23
2022-09-22T11:39:00.174Z,100.00
2022-09-22T11:42:07.266Z,95.70
2022-09-22T11:45:17.543Z,94.96
2022-09-22T11:48:27.119Z,92.50
2022-09-22T11:51:39.253Z,91.22
2022-09-22T11:54:50.697Z,97.17
2022-09-22T11:57:55.804Z,96.88
2022-09-22T12:01:01.829Z,96.16
2022-09-22T12:04:06.965Z,92.60
2022-09-22T12:07:09.930Z,89.70
2022-09-22T12:10:15.798Z,87.41
2022-09-22T12:13:18.748Z,88.64
2022-09-22T12:16:24.966Z,86.21
2022-09-22T12:19:32.306Z,86.88
2022-09-22T12:22:37.509Z,88.52
2022-09-22T12:25:48.571Z,86.96
2022-09-22T12:28:51.085Z,88.23
2022-09-22T12:31:55.261Z,85.67
2022-09-22T12:34:58.200Z,87.08
2022-09-22T12:38:01.289Z,81.68
2022-09-22T12:41:03.386Z,80.28
2022-09-22T12:44:08.191Z,78.91
2022-09-22T12:47:20.022Z,75.60
2022-09-22T12:50:33.193Z,77.84
2022-09-22T12:53:34.798Z,81.31
2022-09-22T12:56:43.303Z,82.75
2022-09-22T12:59:55.301Z,80.94
2022-09-22T13:02:58.311Z,75.59
2022-09-22T13:06:00.683Z,76.63
2022-09-22T13:09:09.132Z,81.59
2022-09-22T13:12:26.255Z,76.91
2022-09-22T13:15:28.709Z,77.99
2022-09-22T13:18:32.931Z,78.82
2022-09-22T13:21:34.544Z,80.62
2022-09-22T13:24:36.161Z,84.13
2022-09-22T13:27:37.790Z,78.41
2022-09-22T13:30:40.674Z,76.54
2022-09-22T13:33:43.743Z,78.10
2022-09-22T13:36:45.624Z,76.80
2022-09-22T13:39:48.393Z,81.04
2022-09-22T13:42:50.035Z,78.69
2022-09-22T13:45:52.062Z,79.73
2022-09-22T13:48:57.063Z,74.43
2022-09-22T13:52:01.107Z,77.93
2022-09-22T13:55:06.217Z,76.97
2022-09-22T13:58:12.145Z,76.17
2022-09-22T14:01:15.267Z,72.50
2022-09-22T14:04:22.343Z,75.28
2022-09-22T14:07:26.646Z,74.67
2022-09-22T14:10:28.384Z,75.13
2022-09-22T14:13:36.580Z,68.38
2022-09-22T14:16:45.632Z,67.93
2022-09-22T14:19:53.303Z,74.43
2022-09-22T14:22:56.185Z,70.13
2022-09-22T14:25:59.003Z,63.80
2022-09-22T14:29:08.184Z,65.68
2022-09-22T14:32:14.866Z,63.79
2022-09-22T14:35:23.190Z,67.73
2022-09-22T14:38:24.994Z,63.34
2022-09-22T14:41:27.487Z,62.92
2022-09-22T14:44:37.574Z,63.04
2022-09-22T14:47:39.743Z,61.35
2022-09-22T14:50:45.344Z,60.43
2022-09-22T14:53:47.988Z,59.70
2022-09-22T14:56:49.588Z,60.75
2022-09-22T14:59:53.461Z,60.30
2022-09-22T15:02:56.116Z,61.12
2022-09-22T15:06:06.614Z,61.52
2022-09-22T15:09:22.530Z,61.05
2022-09-22T15:12:35.013Z,63.50
2022-09-22T15:15:44.627Z,61.64
2022-09-22T15:18:46.536Z,61.22
2022-09-22T15:21:49.710Z,64.89
2022-09-22T15:24:51.666Z,61.54
2022-09-22T15:27:53.348Z,60.53
2022-09-22T15:30:55.032Z,61.66
2022-09-22T15:33:57.728Z,62.93
2022-09-22T15:37:00.734Z,62.59
2022-09-22T15:40:06.106Z,62.77
2022-09-22T15:43:13.031Z,63.26
2022-09-22T15:46:24.122Z,59.50
2022-09-22T15:49:26.568Z,60.15
2022-09-22T15:52:30.079Z,59.91
2022-09-22T15:55:33.197Z,59.93
2022-09-22T15:58:39.443Z,59.64
2022-09-22T16:01:41.126Z,61.05
2022-09-22T16:04:42.748Z,59.73
2022-09-22T16:07:48.213Z,58.73
2022-09-22T16:10:49.925Z,60.63
2022-09-22T16:13:51.490Z,57.25
2022-09-22T16:16:53.089Z,56.64
2022-09-22T16:19:54.670Z,58.40
2022-09-22T16:22:57.665Z,58.06
2022-09-22T16:25:59.282Z,56.88
2022-09-22T16:29:01.272Z,57.44
2022-09-22T16:32:02.924Z,58.69
2022-09-22T16:35:04.946Z,62.05
2022-09-22T16:38:08.013Z,65.95
2022-09-22T16:41:18.005Z,67.85
2022-09-22T16:44:19.669Z,69.15
2022-09-22T16:47:21.333Z,70.56
2022-09-22T16:50:22.904Z,72.05
2022-09-22T16:53:25.908Z,75.64
2022-09-22T16:56:28.394Z,74.35
2022-09-22T16:59:29.956Z,75.82
2022-09-22T17:02:31.567Z,77.41
2022-09-22T17:05:33.173Z,77.38
2022-09-22T17:08:36.874Z,76.90
2022-09-22T17:11:39.429Z,77.66
2022-09-22T17:14:41.042Z,81.69
2022-09-22T17:17:42.815Z,80.91
2022-09-22T17:20:44.419Z,83.43
2022-09-22T17:23:48.289Z,85.04
2022-09-22T17:26:51.262Z,85.68
2022-09-22T17:29:52.920Z,86.18
2022-09-22T17:32:54.533Z,86.05
2022-09-22T17:35:56.703Z,86.76
2022-09-22T17:39:00.733Z,89.74
2022-09-22T17:42:02.376Z,93.88
2022-09-22T17:45:04.319Z,92.22
2022-09-22T17:48:06.009Z,92.23
2022-09-22T17:51:25.870Z,97.85
2022-09-22T17:54:29.691Z,100.00
2022-09-22T17:57:32.319Z,100.00
2022-09-22T18:00:34.013Z,100.00
2022-09-22T18:03:35.581Z,100.00
2022-09-22T18:06:37.203Z,100.00
2022-09-22T18:09:40.391Z,100.00
2022-09-22T18:12:42.533Z,100.00
2022-09-22T18:15:44.250Z,100.00
2022-09-22T18:18:45.894Z,100.00
2022-09-22T18:21:47.684Z,100.00
2022-09-22T18:24:51.617Z,100.00
2022-09-22T18:27:53.247Z,100.00
2022-09-22T18:30:54.957Z,100.00
2022-09-22T18:33:57.223Z,100.00
2022-09-22T18:36:58.972Z,100.00
2022-09-22T18:40:02.578Z,100.00
2022-09-22T18:43:04.422Z,100.00
2022-09-22T18:46:06.060Z,100.00
2022-09-22T18:49:08.005Z,100.00
2022-09-22T18:52:09.819Z,100.00
2022-09-22T18:55:12.963Z,100.00
2022-09-22T18:58:14.752Z,100.00
2022-09-22T19:01:16.664Z,100.00
2022-09-22T19:04:19.490Z,100.00
2022-09-22T19:07:21.279Z,100.00
2022-09-22T19:10:24.469Z,100.00
2022-09-22T19:13:26.315Z,100.00
2022-09-22T19:16:28.047Z,100.00
2022-09-22T19:19:29.889Z,100.00
2022-09-22T19:22:31.519Z,100.00
2022-09-22T19:25:34.515Z,100.00
2022-09-22T19:28:36.241Z,100.00
2022-09-22T19:31:38.637Z,100.00
2022-09-22T19:34:40.279Z,100.00
2022-09-22T19:37:41.980Z,100.00
2022-09-22T19:40:45.002Z,100.00
2022-09-22T19:43:46.939Z,100.00
2022-09-22T19:46:49.344Z,100.00
2022-09-22T19:49:51.287Z,100.00
2022-09-22T19:52:53.003Z,100.00
2022-09-22T19:55:56.064Z,100.00
2022-09-22T19:58:57.712Z,100.00
2022-09-22T20:01:59.403Z,100.00
2022-09-22T20:05:01.034Z,100.00
2022-09-22T20:08:02.871Z,100.00
2022-09-22T20:11:23.024Z,100.00
2022-09-22T20:14:27.814Z,100.00
2022-09-22T20:17:29.529Z,100.00
2022-09-22T20:20:31.119Z,100.00
2022-09-22T20:23:33.588Z,100.00
2022-09-22T20:26:36.574Z,100.00
2022-09-22T20:29:38.192Z,100.00
2022-09-22T20:32:39.761Z,100.00
2022-09-22T20:35:41.409Z,100.00
2022-09-22T20:38:43.020Z,100.00
2022-09-22T20:41:46.046Z,100.00
2022-09-22T20:44:47.785Z,100.00
2022-09-22T20:47:49.521Z,100.00
2022-09-22T20:50:54.683Z,100.00
2022-09-22T20:53:56.325Z,100.00
2022-09-22T20:56:59.479Z,100.00
2022-09-22T21:00:01.279Z,100.00
2022-09-22T21:03:03.052Z,100.00
2022-09-22T21:06:05.884Z,100.00
2022-09-22T21:09:08.789Z,100.00
2022-09-22T21:12:11.771Z,100.00
2022-09-22T21:15:13.738Z,100.00
2022-09-22T21:18:15.406Z,100.00
2022-09-22T21:21:17.733Z,100.00
2022-09-22T21:24:19.418Z,100.00
2022-09-22T21:27:22.784Z,100.00
2022-09-22T21:30:24.419Z,100.00
2022-09-22T21:33:26.593Z,100.00
2022-09-22T21:36:28.292Z,100.00
2022-09-22T21:39:29.973Z,100.00
2022-09-22T21:42:33.030Z,100.00
2022-09-22T21:45:34.679Z,100.00
2022-09-22T21:48:36.688Z,100.00
2022-09-22T21:51:39.153Z,100.00
2022-09-22T21:54:40.731Z,100.00
2022-09-22T21:57:43.707Z,100.00
2022-09-22T22:00:52.116Z,100.00
2022-09-22T22:03:55.454Z,100.00
2022-09-22T22:06:57.065Z,100.00
2022-09-22T22:09:58.628Z,100.00
2022-09-22T22:13:01.647Z,100.00
2022-09-22T22:16:03.808Z,100.00
2022-09-22T22:19:05.562Z,100.00
2022-09-22T22:22:07.244Z,100.00
2022-09-22T22:25:09.026Z,100.00
2022-09-22T22:28:12.389Z,100.00
2022-09-22T22:31:14.956Z,100.00
2022-09-22T22:34:17.788Z,100.00
2022-09-22T22:37:19.367Z,100.00
2022-09-22T22:40:21.120Z,100.00
2022-09-22T22:43:24.110Z,100.00
2022-09-22T22:46:25.778Z,100.00
2022-09-22T22:49:27.429Z,100.00
2022-09-22T22:52:29.150Z,100.00
2022-09-22T22:55:30.901Z,100.00
2022-09-22T22:58:34.716Z,100.00
2022-09-22T23:01:38.258Z,100.00
2022-09-22T23:04:39.873Z,100.00
2022-09-22T23:07:41.492Z,100.00
2022-09-22T23:10:43.150Z,100.00
2022-09-22T23:13:47.570Z,100.00
2022-09-22T23:16:49.345Z,100.00
2022-09-22T23:19:51.103Z,100.00
2022-09-22T23:22:52.714Z,100.00
2022-09-22T23:25:54.321Z,100.00
2022-09-22T23:28:57.518Z,100.00
2022-09-22T23:31:59.161Z,100.00
2022-09-22T23:35:00.758Z,100.00
2022-09-22T23:38:02.643Z,100.00
2022-09-22T23:41:04.670Z,100.00
2022-09-22T23:44:07.705Z,100.00
2022-09-22T23:47:12.188Z,100.00
2022-09-22T23:50:15.969Z,100.00
2022-09-22T23:53:18.365Z,100.00
2022-09-22T23:56:19.981Z,100.00
2022-09-22T23:59:22.987Z,100.00
